createdAt,value
2024-01-16T00:00:24.753Z,2.90
2024-01-16T00:03:26.272Z,3.35
2024-01-16T00:06:27.849Z,2.60
2024-01-16T00:09:29.318Z,2.33
2024-01-16T00:12:30.745Z,2.53
2024-01-16T00:15:32.207Z,2.60
2024-01-16T00:18:33.899Z,2.47
2024-01-16T00:21:40.471Z,2.25
2024-01-16T00:24:41.878Z,3.28
2024-01-16T00:27:43.793Z,2.88
2024-01-16T00:30:45.313Z,2.08
2024-01-16T00:33:46.795Z,2.83
2024-01-16T00:36:48.245Z,2.40
2024-01-16T00:39:49.643Z,2.28
2024-01-16T00:42:51.149Z,2.85
2024-01-16T00:45:52.757Z,2.20
2024-01-16T00:48:54.314Z,2.15
2024-01-16T00:51:55.798Z,2.25
2024-01-16T00:54:57.174Z,2.40
2024-01-16T00:57:58.586Z,2.10
2024-01-16T01:01:00.035Z,2.00
2024-01-16T01:04:01.553Z,2.70
2024-01-16T01:07:03.130Z,2.53
2024-01-16T01:10:04.758Z,1.92
2024-01-16T01:13:06.158Z,2.00
2024-01-16T01:16:07.551Z,2.42
2024-01-16T01:19:09.044Z,2.25
2024-01-16T01:22:10.461Z,2.33
2024-01-16T01:25:12.717Z,3.42
2024-01-16T01:28:14.105Z,2.45
2024-01-16T01:31:15.514Z,2.47
2024-01-16T01:34:17.363Z,2.78
2024-01-16T01:37:18.872Z,2.10
2024-01-16T01:40:20.268Z,2.80
2024-01-16T01:43:24.315Z,2.50
2024-01-16T01:46:26.314Z,3.10
2024-01-16T01:49:28.610Z,2.58
2024-01-16T01:52:32.932Z,2.42
2024-01-16T01:55:34.655Z,2.67
2024-01-16T01:58:39.175Z,2.28
2024-01-16T02:01:41.414Z,2.47
2024-01-16T02:04:45.027Z,2.75
2024-01-16T02:07:47.196Z,2.50
2024-01-16T02:10:50.954Z,2.30
2024-01-16T02:13:52.791Z,2.80
2024-01-16T02:16:54.206Z,2.78
2024-01-16T02:19:55.645Z,2.67
2024-01-16T02:22:59.774Z,2.22
2024-01-16T02:26:01.920Z,3.17
2024-01-16T02:29:05.573Z,2.92
2024-01-16T02:32:06.973Z,2.78
2024-01-16T02:35:08.552Z,3.42
2024-01-16T02:38:10.101Z,3.60
2024-01-16T02:41:14.602Z,3.20
2024-01-16T02:44:16.009Z,3.38
2024-01-16T02:47:17.632Z,3.00
2024-01-16T02:50:19.092Z,2.28
2024-01-16T02:53:20.550Z,3.05
2024-01-16T02:56:21.977Z,2.78
2024-01-16T02:59:23.609Z,2.80
2024-01-16T03:02:25.056Z,3.10
2024-01-16T03:05:26.478Z,2.75
2024-01-16T03:08:28.015Z,3.30
2024-01-16T03:11:31.360Z,3.30
2024-01-16T03:14:35.425Z,2.67
2024-01-16T03:17:36.984Z,4.53
2024-01-16T03:20:38.514Z,3.03
2024-01-16T03:23:39.986Z,2.95
2024-01-16T03:26:41.772Z,4.05
2024-01-16T03:29:43.322Z,4.43
2024-01-16T03:32:44.959Z,3.67
2024-01-16T03:35:46.561Z,3.78
2024-01-16T03:38:48.129Z,3.88
2024-01-16T03:41:49.633Z,3.28
2024-01-16T03:44:51.099Z,3.40
2024-01-16T03:47:52.598Z,2.90
2024-01-16T03:50:55.620Z,2.97
2024-01-16T03:53:57.167Z,2.95
2024-01-16T03:56:58.597Z,3.08
2024-01-16T04:00:00.048Z,3.30
2024-01-16T04:03:01.447Z,3.85
2024-01-16T04:06:03.043Z,3.17
2024-01-16T04:09:05.776Z,3.25
2024-01-16T04:12:09.202Z,3.28
2024-01-16T04:15:10.737Z,2.80
2024-01-16T04:18:12.243Z,4.30
2024-01-16T04:21:13.948Z,3.85
2024-01-16T04:24:16.011Z,3.90
2024-01-16T04:27:17.432Z,3.60
2024-01-16T04:30:21.298Z,3.70
2024-01-16T04:33:22.863Z,3.80
2024-01-16T04:36:24.733Z,3.72
2024-01-16T04:39:26.107Z,4.07
2024-01-16T04:42:27.511Z,4.07
2024-01-16T04:45:29.011Z,3.75
2024-01-16T04:48:30.480Z,2.67
2024-01-16T04:51:31.936Z,4.47
2024-01-16T04:54:33.600Z,4.00
2024-01-16T04:57:35.005Z,4.57
2024-01-16T05:00:36.455Z,3.47
2024-01-16T05:03:38.010Z,4.05
2024-01-16T05:06:40.381Z,4.03
2024-01-16T05:09:42.080Z,3.83
2024-01-16T05:12:43.521Z,3.50
2024-01-16T05:15:45.006Z,3.80
2024-01-16T05:18:46.467Z,3.25
2024-01-16T05:21:47.935Z,4.82
2024-01-16T05:24:49.315Z,5.07
2024-01-16T05:27:50.724Z,3.55
2024-01-16T05:30:52.273Z,4.18
2024-01-16T05:33:54.291Z,4.13
2024-01-16T05:36:55.954Z,3.50
2024-01-16T05:39:57.443Z,3.70
2024-01-16T05:42:58.879Z,4.10
2024-01-16T05:46:00.282Z,4.18
2024-01-16T05:49:02.217Z,3.67
2024-01-16T05:52:03.820Z,3.65
2024-01-16T05:55:06.077Z,3.70
2024-01-16T05:58:07.484Z,2.92
2024-01-16T06:01:08.940Z,3.72
2024-01-16T06:04:11.947Z,3.35
2024-01-16T06:07:14.973Z,2.85
2024-01-16T06:10:16.640Z,4.35
2024-01-16T06:13:21.203Z,3.50
2024-01-16T06:16:22.611Z,3.63
2024-01-16T06:19:24.054Z,3.38
2024-01-16T06:22:25.496Z,2.78
2024-01-16T06:25:26.918Z,4.35
2024-01-16T06:28:28.372Z,3.22
2024-01-16T06:31:29.872Z,3.28
2024-01-16T06:34:31.802Z,3.88
2024-01-16T06:37:33.281Z,4.13
2024-01-16T06:40:34.658Z,3.30
2024-01-16T06:43:36.200Z,2.85
2024-01-16T06:46:37.611Z,5.22
2024-01-16T06:49:39.166Z,3.83
2024-01-16T06:52:40.593Z,4.07
2024-01-16T06:55:42.036Z,3.88
2024-01-16T06:58:43.432Z,4.35
2024-01-16T07:01:45.460Z,3.15
2024-01-16T07:04:46.992Z,3.78
2024-01-16T07:07:48.560Z,3.15
2024-01-16T07:10:49.967Z,4.30
2024-01-16T07:13:51.404Z,3.80
2024-01-16T07:16:52.848Z,4.22
2024-01-16T07:19:54.315Z,4.05
2024-01-16T07:22:55.762Z,4.70
2024-01-16T07:25:57.178Z,4.28
2024-01-16T07:28:58.595Z,4.22
2024-01-16T07:32:00.251Z,3.42
2024-01-16T07:35:04.132Z,4.00
2024-01-16T07:38:05.972Z,3.47
2024-01-16T07:41:07.441Z,4.15
2024-01-16T07:44:08.971Z,4.18
2024-01-16T07:47:10.513Z,4.30
2024-01-16T07:50:12.038Z,3.83
2024-01-16T07:53:13.514Z,4.50
2024-01-16T07:56:15.036Z,4.25
2024-01-16T07:59:16.458Z,3.55
2024-01-16T08:02:18.381Z,4.80
2024-01-16T08:05:22.868Z,4.55
2024-01-16T08:08:24.504Z,4.25
2024-01-16T08:11:26.034Z,4.15
2024-01-16T08:14:27.549Z,3.75
2024-01-16T08:17:29.081Z,3.90
2024-01-16T08:20:30.581Z,4.55
2024-01-16T08:23:32.099Z,3.65
2024-01-16T08:26:33.598Z,3.20
2024-01-16T08:29:35.458Z,3.85
2024-01-16T08:32:36.953Z,4.10
2024-01-16T08:35:38.577Z,2.90
2024-01-16T08:38:40.123Z,3.17
2024-01-16T08:41:41.676Z,4.47
2024-01-16T08:44:43.246Z,3.58
2024-01-16T08:47:44.914Z,4.30
2024-01-16T08:50:46.845Z,3.47
2024-01-16T08:53:48.368Z,4.63
2024-01-16T08:56:50.296Z,4.00
2024-01-16T08:59:51.807Z,4.60
2024-01-16T09:02:53.464Z,4.63
2024-01-16T09:05:55.109Z,3.75
2024-01-16T09:08:57.094Z,3.97
2024-01-16T09:11:59.069Z,4.28
2024-01-16T09:15:00.660Z,3.55
2024-01-16T09:18:02.838Z,4.40
2024-01-16T09:21:04.649Z,4.35
2024-01-16T09:24:06.249Z,4.55
2024-01-16T09:27:07.950Z,3.92
2024-01-16T09:30:09.877Z,3.75
2024-01-16T09:33:12.199Z,4.38
2024-01-16T09:36:13.727Z,3.97
2024-01-16T09:39:18.098Z,3.53
2024-01-16T09:42:21.190Z,3.53
2024-01-16T09:45:23.027Z,3.92
2024-01-16T09:48:25.528Z,3.83
2024-01-16T09:51:27.217Z,4.28
2024-01-16T09:54:28.669Z,3.38
2024-01-16T09:57:31.007Z,4.05
2024-01-16T10:00:33.362Z,3.28
2024-01-16T10:03:36.124Z,3.13
2024-01-16T10:06:40.371Z,4.15
2024-01-16T10:09:42.050Z,3.75
2024-01-16T10:12:44.650Z,3.10
2024-01-16T10:15:50.832Z,5.10
2024-01-16T10:19:05.456Z,3.72
2024-01-16T10:22:10.021Z,3.17
2024-01-16T10:25:13.546Z,3.63
2024-01-16T10:28:25.378Z,2.90
2024-01-16T10:31:31.221Z,2.95
2024-01-16T10:34:32.894Z,3.03
2024-01-16T10:37:50.056Z,2.58
2024-01-16T10:41:06.998Z,2.80
2024-01-16T10:44:09.037Z,3.08
2024-01-16T10:47:13.019Z,3.20
2024-01-16T10:50:14.735Z,3.22
2024-01-16T10:53:20.029Z,3.38
2024-01-16T10:56:21.692Z,3.10
2024-01-16T10:59:27.074Z,4.57
2024-01-16T11:02:39.568Z,3.28
2024-01-16T11:05:42.272Z,4.10
2024-01-16T11:08:47.066Z,4.05
2024-01-16T11:11:51.250Z,3.58
2024-01-16T11:14:53.301Z,3.53
2024-01-16T11:17:56.542Z,2.92
2024-01-16T11:21:06.119Z,2.95
2024-01-16T11:24:10.428Z,3.42
2024-01-16T11:27:23.318Z,3.08
2024-01-16T11:30:35.249Z,3.67
2024-01-16T11:33:36.690Z,3.00
2024-01-16T11:36:56.371Z,2.70
2024-01-16T11:40:21.783Z,2.88
2024-01-16T11:43:35.782Z,2.63
2024-01-16T11:47:01.479Z,2.90
2024-01-16T11:53:37.703Z,2.70
2024-01-16T11:56:45.593Z,3.00
2024-01-16T11:59:48.049Z,3.45
2024-01-16T12:03:02.742Z,2.95
2024-01-16T12:06:07.553Z,3.17
2024-01-16T12:12:16.764Z,2.65
2024-01-16T12:15:20.072Z,3.42
2024-01-16T12:18:30.915Z,2.70
2024-01-16T12:21:41.892Z,3.55
2024-01-16T12:24:43.714Z,3.05
2024-01-16T12:27:45.159Z,3.20
2024-01-16T12:30:50.988Z,3.70
2024-01-16T12:33:58.375Z,2.53
2024-01-16T12:37:07.955Z,2.90
2024-01-16T12:40:09.887Z,3.08
2024-01-16T12:43:11.467Z,2.88
2024-01-16T12:46:13.089Z,2.85
2024-01-16T12:49:14.650Z,2.53
2024-01-16T12:52:21.808Z,2.60
2024-01-16T12:55:24.566Z,2.22
2024-01-16T12:58:28.998Z,2.28
2024-01-16T13:01:38.896Z,1.88
2024-01-16T13:04:41.920Z,2.20
2024-01-16T13:07:43.336Z,1.90
2024-01-16T13:10:44.728Z,2.33
2024-01-16T13:13:48.957Z,2.65
2024-01-16T13:16:56.544Z,2.57
2024-01-16T13:19:58.005Z,2.33
2024-01-16T13:22:59.520Z,2.15
2024-01-16T13:26:01.370Z,2.10
2024-01-16T13:29:02.842Z,2.10
2024-01-16T13:32:05.535Z,2.60
2024-01-16T13:35:10.628Z,2.40
2024-01-16T13:41:14.248Z,2.50
2024-01-16T13:44:15.754Z,2.60
2024-01-16T13:47:22.966Z,2.67
2024-01-16T13:50:25.126Z,2.50
2024-01-16T13:53:26.676Z,2.45
2024-01-16T13:56:46.042Z,2.38
2024-01-16T13:59:49.556Z,2.25
2024-01-16T14:02:51.964Z,2.58
2024-01-16T14:05:56.419Z,2.05
2024-01-16T14:08:57.844Z,2.28
2024-01-16T14:11:59.310Z,2.13
2024-01-16T14:15:01.803Z,2.88
2024-01-16T14:18:10.582Z,1.83
2024-01-16T14:21:12.070Z,1.83
2024-01-16T14:24:13.663Z,2.47
2024-01-16T14:27:16.675Z,1.50
2024-01-16T14:30:19.754Z,1.90
2024-01-16T14:33:21.339Z,1.80
2024-01-16T14:36:22.801Z,1.85
2024-01-16T14:39:26.989Z,2.42
2024-01-16T14:42:29.238Z,2.00
2024-01-16T14:45:32.585Z,2.38
2024-01-16T14:48:34.110Z,2.00
2024-01-16T14:51:36.466Z,2.05
2024-01-16T14:54:37.925Z,2.05
2024-01-16T14:57:47.689Z,1.92
2024-01-16T15:00:49.775Z,2.03
2024-01-16T15:03:51.310Z,3.33
2024-01-16T15:06:53.895Z,4.22
2024-01-16T15:09:56.270Z,4.60
2024-01-16T15:12:57.768Z,4.85
2024-01-16T15:15:59.200Z,3.67
2024-01-16T15:19:00.872Z,2.72
2024-01-16T15:22:02.465Z,2.30
2024-01-16T15:25:06.153Z,2.25
2024-01-16T15:28:07.668Z,2.25
2024-01-16T15:31:09.929Z,2.10
2024-01-16T15:34:14.785Z,2.22
2024-01-16T15:37:18.290Z,3.35
2024-01-16T15:40:20.369Z,2.80
2024-01-16T15:43:21.958Z,2.10
2024-01-16T15:46:24.888Z,3.33
2024-01-16T15:49:27.393Z,3.53
2024-01-16T15:52:29.285Z,3.47
2024-01-16T15:55:30.712Z,2.85
2024-01-16T15:58:33.524Z,2.70
2024-01-16T16:01:35.004Z,1.60
2024-01-16T16:04:38.075Z,2.20
2024-01-16T16:07:39.614Z,1.90
2024-01-16T16:10:42.466Z,1.70
2024-01-16T16:13:44.073Z,2.17
2024-01-16T16:16:48.336Z,2.33
2024-01-16T16:19:50.546Z,2.70
2024-01-16T16:22:52.191Z,2.22
2024-01-16T16:25:53.664Z,2.00
2024-01-16T16:28:55.076Z,2.50
2024-01-16T16:31:57.885Z,2.40
2024-01-16T16:34:59.337Z,2.22
2024-01-16T16:38:01.277Z,2.72
2024-01-16T16:41:03.137Z,2.03
2024-01-16T16:44:04.703Z,2.78
2024-01-16T16:47:06.106Z,2.40
2024-01-16T16:50:07.764Z,2.80
2024-01-16T16:53:10.024Z,3.33
2024-01-16T16:56:13.272Z,2.83
2024-01-16T16:59:14.814Z,2.92
2024-01-16T17:02:16.313Z,3.20
2024-01-16T17:05:20.310Z,3.20
2024-01-16T17:08:22.049Z,3.63
2024-01-16T17:11:24.889Z,2.88
2024-01-16T17:14:26.373Z,2.50
2024-01-16T17:17:30.135Z,3.15
2024-01-16T17:20:32.841Z,2.83
2024-01-16T17:23:35.210Z,2.42
2024-01-16T17:26:36.975Z,2.53
2024-01-16T17:29:39.753Z,3.78
2024-01-16T17:32:41.448Z,4.13
2024-01-16T17:35:43.061Z,10.43
2024-01-16T17:38:45.509Z,12.63
2024-01-16T17:41:47.303Z,9.75
2024-01-16T17:44:50.162Z,6.53
2024-01-16T17:47:52.087Z,4.88
2024-01-16T17:50:53.786Z,4.60
2024-01-16T17:53:55.512Z,3.78
2024-01-16T17:56:57.800Z,3.78
2024-01-16T17:59:59.361Z,4.07
2024-01-16T18:03:01.177Z,4.10
2024-01-16T18:06:06.350Z,4.00
2024-01-16T18:09:11.135Z,5.68
2024-01-16T18:12:12.778Z,5.43
2024-01-16T18:15:14.502Z,5.35
2024-01-16T18:18:17.232Z,5.22
2024-01-16T18:21:18.979Z,5.13
2024-01-16T18:24:22.292Z,5.63
2024-01-16T18:27:23.735Z,4.65
2024-01-16T18:30:27.598Z,5.82
2024-01-16T18:33:29.299Z,4.88
2024-01-16T18:36:30.875Z,6.10
2024-01-16T18:39:32.910Z,7.82
2024-01-16T18:42:34.319Z,8.10
2024-01-16T18:45:35.819Z,8.55
2024-01-16T18:48:37.396Z,6.63
2024-01-16T18:51:38.971Z,7.57
2024-01-16T18:54:41.185Z,7.07
2024-01-16T18:57:43.533Z,6.60
2024-01-16T19:00:45.623Z,6.85
2024-01-16T19:03:49.407Z,7.63
2024-01-16T19:06:52.900Z,7.78
2024-01-16T19:09:54.379Z,6.57
2024-01-16T19:12:56.514Z,6.68
2024-01-16T19:15:57.940Z,6.32
2024-01-16T19:19:00.114Z,7.03
2024-01-16T19:22:01.793Z,6.72
2024-01-16T19:25:03.518Z,7.35
2024-01-16T19:28:05.085Z,7.15
2024-01-16T19:31:06.762Z,7.70
2024-01-16T19:34:10.878Z,6.38
2024-01-16T19:37:12.382Z,7.28
2024-01-16T19:40:17.899Z,8.00
2024-01-16T19:43:20.590Z,7.40
2024-01-16T19:46:21.989Z,7.60
2024-01-16T19:49:23.422Z,8.18
2024-01-16T19:52:24.834Z,8.63
2024-01-16T19:55:26.234Z,7.85
2024-01-16T19:58:27.671Z,6.72
2024-01-16T20:01:31.572Z,7.32
2024-01-16T20:04:34.015Z,6.93
2024-01-16T20:07:35.647Z,8.75
2024-01-16T20:10:39.897Z,7.15
2024-01-16T20:13:41.642Z,8.83
2024-01-16T20:16:43.215Z,8.32
2024-01-16T20:19:44.774Z,6.03
2024-01-16T20:22:46.293Z,6.60
2024-01-16T20:25:47.769Z,6.38
2024-01-16T20:28:52.090Z,6.63
2024-01-16T20:31:53.633Z,6.47
2024-01-16T20:34:55.557Z,6.20
2024-01-16T20:37:57.075Z,6.45
2024-01-16T20:40:58.479Z,4.30
2024-01-16T20:43:59.957Z,5.10
2024-01-16T20:47:02.019Z,3.90
2024-01-16T20:50:06.319Z,5.20
2024-01-16T20:53:07.763Z,4.47
2024-01-16T20:56:09.379Z,5.55
2024-01-16T20:59:12.475Z,5.20
2024-01-16T21:02:13.906Z,4.18
2024-01-16T21:05:15.518Z,5.50
2024-01-16T21:08:17.114Z,5.05
2024-01-16T21:11:18.537Z,5.10
2024-01-16T21:14:20.756Z,6.00
2024-01-16T21:17:23.911Z,4.95
2024-01-16T21:20:26.171Z,5.47
2024-01-16T21:23:27.653Z,4.75
2024-01-16T21:26:29.339Z,5.93
2024-01-16T21:29:30.840Z,6.03
2024-01-16T21:32:32.562Z,7.43
2024-01-16T21:35:34.887Z,5.47
2024-01-16T21:38:36.822Z,6.18
2024-01-16T21:41:38.304Z,5.50
2024-01-16T21:44:40.075Z,4.43
2024-01-16T21:47:41.546Z,5.50
2024-01-16T21:50:43.871Z,5.97
2024-01-16T21:53:45.737Z,6.70
2024-01-16T21:56:47.166Z,6.03
2024-01-16T21:59:48.687Z,6.20
2024-01-16T22:02:57.514Z,5.45
2024-01-16T22:05:59.201Z,7.18
2024-01-16T22:09:00.741Z,7.72
2024-01-16T22:12:02.316Z,5.90
2024-01-16T22:15:04.236Z,6.05
2024-01-16T22:18:05.855Z,5.57
2024-01-16T22:21:08.175Z,5.45
2024-01-16T22:24:09.693Z,5.97
2024-01-16T22:27:11.150Z,5.18
2024-01-16T22:30:13.444Z,5.32
2024-01-16T22:33:15.066Z,5.30
2024-01-16T22:36:16.721Z,6.18
2024-01-16T22:39:18.787Z,5.63
2024-01-16T22:42:21.609Z,5.45
2024-01-16T22:45:24.167Z,5.75
2024-01-16T22:48:25.866Z,5.03
2024-01-16T22:51:27.336Z,6.22
2024-01-16T22:54:28.706Z,5.00
2024-01-16T22:57:30.131Z,5.28
2024-01-16T23:00:31.813Z,5.25
2024-01-16T23:03:33.299Z,6.40
2024-01-16T23:06:34.728Z,4.05
2024-01-16T23:09:36.246Z,6.00
2024-01-16T23:12:37.656Z,7.78
2024-01-16T23:15:39.310Z,6.97
2024-01-16T23:18:41.295Z,5.82
2024-01-16T23:21:42.796Z,7.13
2024-01-16T23:24:44.202Z,5.55
2024-01-16T23:27:45.680Z,5.32
2024-01-16T23:30:47.136Z,6.88
2024-01-16T23:33:48.688Z,5.70
2024-01-16T23:36:50.489Z,5.20
2024-01-16T23:39:55.145Z,5.50
2024-01-16T23:42:58.260Z,6.05
2024-01-16T23:46:01.732Z,6.25
2024-01-16T23:49:03.303Z,6.53
2024-01-16T23:52:06.775Z,5.82
2024-01-16T23:55:10.247Z,7.82
2024-01-16T23:58:11.987Z,8.27
